sensor_id;sensor_type;location;lat;lon;timestamp;P1;durP1;ratioP1;P2;durP2;ratioP2
8716;SDS011;4395;48.554;8.820;2022-10-29T00:01:22;10.77;;;3.87;;
8716;SDS011;4395;48.554;8.820;2022-10-29T00:03:25;8.23;;;3.63;;
8716;SDS011;4395;48.554;8.820;2022-10-29T00:05:28;8.37;;;4.13;;
8716;SDS011;4395;48.554;8.820;2022-10-29T00:07:31;10.77;;;4.00;;
8716;SDS011;4395;48.554;8.820;2022-10-29T00:09:34;8.73;;;4.07;;
8716;SDS011;4395;48.554;8.820;2022-10-29T00:11:38;7.13;;;3.80;;
8716;SDS011;4395;48.554;8.820;2022-10-29T00:13:41;9.93;;;3.90;;
8716;SDS011;4395;48.554;8.820;2022-10-29T00:15:44;9.33;;;3.90;;
8716;SDS011;4395;48.554;8.820;2022-10-29T00:17:47;11.40;;;4.17;;
8716;SDS011;4395;48.554;8.820;2022-10-29T00:19:50;8.07;;;3.80;;
8716;SDS011;4395;48.554;8.820;2022-10-29T00:21:52;14.23;;;4.23;;
8716;SDS011;4395;48.554;8.820;2022-10-29T00:23:55;8.37;;;4.40;;
8716;SDS011;4395;48.554;8.820;2022-10-29T00:25:59;13.93;;;4.07;;
8716;SDS011;4395;48.554;8.820;2022-10-29T00:28:04;9.83;;;4.30;;
8716;SDS011;4395;48.554;8.820;2022-10-29T00:30:07;10.50;;;5.43;;
8716;SDS011;4395;48.554;8.820;2022-10-29T00:32:11;13.17;;;4.90;;
8716;SDS011;4395;48.554;8.820;2022-10-29T00:34:14;16.80;;;6.37;;
8716;SDS011;4395;48.554;8.820;2022-10-29T00:36:17;8.20;;;4.97;;
8716;SDS011;4395;48.554;8.820;2022-10-29T00:38:22;11.30;;;6.90;;
8716;SDS011;4395;48.554;8.820;2022-10-29T00:40:25;17.20;;;8.40;;
8716;SDS011;4395;48.554;8.820;2022-10-29T00:42:28;15.40;;;6.97;;
8716;SDS011;4395;48.554;8.820;2022-10-29T00:44:32;13.07;;;5.73;;
8716;SDS011;4395;48.554;8.820;2022-10-29T00:46:36;12.37;;;5.20;;
8716;SDS011;4395;48.554;8.820;2022-10-29T00:48:40;10.63;;;4.43;;
8716;SDS011;4395;48.554;8.820;2022-10-29T00:50:47;9.53;;;4.33;;
8716;SDS011;4395;48.554;8.820;2022-10-29T00:52:50;14.33;;;5.03;;
8716;SDS011;4395;48.554;8.820;2022-10-29T00:54:56;9.37;;;5.00;;
8716;SDS011;4395;48.554;8.820;2022-10-29T00:57:03;20.30;;;10.47;;
8716;SDS011;4395;48.554;8.820;2022-10-29T00:59:11;26.63;;;15.23;;
8716;SDS011;4395;48.554;8.820;2022-10-29T01:01:19;22.70;;;11.23;;
8716;SDS011;4395;48.554;8.820;2022-10-29T01:03:22;20.23;;;10.07;;
8716;SDS011;4395;48.554;8.820;2022-10-29T01:05:25;17.13;;;8.90;;
8716;SDS011;4395;48.554;8.820;2022-10-29T01:07:30;25.67;;;13.97;;
8716;SDS011;4395;48.554;8.820;2022-10-29T01:09:33;27.10;;;14.47;;
8716;SDS011;4395;48.554;8.820;2022-10-29T01:11:38;28.30;;;14.93;;
8716;SDS011;4395;48.554;8.820;2022-10-29T01:13:56;26.63;;;13.27;;
8716;SDS011;4395;48.554;8.820;2022-10-29T01:16:09;26.83;;;15.53;;
8716;SDS011;4395;48.554;8.820;2022-10-29T01:18:23;29.67;;;15.77;;
8716;SDS011;4395;48.554;8.820;2022-10-29T01:20:44;19.90;;;11.70;;
8716;SDS011;4395;48.554;8.820;2022-10-29T01:23:04;15.27;;;9.93;;
8716;SDS011;4395;48.554;8.820;2022-10-29T01:25:27;23.57;;;12.43;;
8716;SDS011;4395;48.554;8.820;2022-10-29T01:27:52;11.73;;;6.17;;
8716;SDS011;4395;48.554;8.820;2022-10-29T01:30:02;11.17;;;5.33;;
8716;SDS011;4395;48.554;8.820;2022-10-29T01:32:13;13.03;;;5.17;;
8716;SDS011;4395;48.554;8.820;2022-10-29T01:34:21;21.87;;;9.97;;
8716;SDS011;4395;48.554;8.820;2022-10-29T01:36:30;27.33;;;14.83;;
8716;SDS011;4395;48.554;8.820;2022-10-29T01:38:41;29.50;;;13.10;;
8716;SDS011;4395;48.554;8.820;2022-10-29T01:40:54;22.07;;;8.73;;
8716;SDS011;4395;48.554;8.820;2022-10-29T01:43:03;16.90;;;6.03;;
8716;SDS011;4395;48.554;8.820;2022-10-29T01:45:10;8.70;;;4.80;;
8716;SDS011;4395;48.554;8.820;2022-10-29T01:47:19;9.93;;;4.97;;
8716;SDS011;4395;48.554;8.820;2022-10-29T01:49:27;11.30;;;3.87;;
8716;SDS011;4395;48.554;8.820;2022-10-29T01:51:34;10.50;;;4.30;;
8716;SDS011;4395;48.554;8.820;2022-10-29T01:53:39;10.23;;;3.70;;
8716;SDS011;4395;48.554;8.820;2022-10-29T01:55:42;12.87;;;3.90;;
8716;SDS011;4395;48.554;8.820;2022-10-29T01:57:45;8.77;;;3.83;;
8716;SDS011;4395;48.554;8.820;2022-10-29T01:59:48;8.17;;;3.90;;
8716;SDS011;4395;48.554;8.820;2022-10-29T02:02:00;7.87;;;4.30;;
8716;SDS011;4395;48.554;8.820;2022-10-29T02:04:18;8.80;;;3.83;;
8716;SDS011;4395;48.554;8.820;2022-10-29T02:06:35;9.77;;;4.33;;
8716;SDS011;4395;48.554;8.820;2022-10-29T02:08:46;11.60;;;4.17;;
8716;SDS011;4395;48.554;8.820;2022-10-29T02:10:58;11.47;;;4.60;;
8716;SDS011;4395;48.554;8.820;2022-10-29T02:13:04;13.40;;;5.43;;
8716;SDS011;4395;48.554;8.820;2022-10-29T02:15:10;12.30;;;4.87;;
8716;SDS011;4395;48.554;8.820;2022-10-29T02:17:18;14.53;;;5.23;;
8716;SDS011;4395;48.554;8.820;2022-10-29T02:19:22;12.90;;;5.50;;
8716;SDS011;4395;48.554;8.820;2022-10-29T02:21:30;10.57;;;5.37;;
8716;SDS011;4395;48.554;8.820;2022-10-29T02:23:33;13.40;;;5.23;;
8716;SDS011;4395;48.554;8.820;2022-10-29T02:25:36;9.77;;;5.40;;
8716;SDS011;4395;48.554;8.820;2022-10-29T02:27:38;10.63;;;5.87;;
8716;SDS011;4395;48.554;8.820;2022-10-29T02:29:42;9.27;;;5.03;;
8716;SDS011;4395;48.554;8.820;2022-10-29T02:31:44;13.63;;;5.60;;
8716;SDS011;4395;48.554;8.820;2022-10-29T02:33:47;10.80;;;4.70;;
8716;SDS011;4395;48.554;8.820;2022-10-29T02:35:51;7.73;;;4.17;;
8716;SDS011;4395;48.554;8.820;2022-10-29T02:37:54;12.40;;;4.07;;
8716;SDS011;4395;48.554;8.820;2022-10-29T02:39:56;8.60;;;3.80;;
8716;SDS011;4395;48.554;8.820;2022-10-29T02:41:59;9.10;;;4.03;;
8716;SDS011;4395;48.554;8.820;2022-10-29T02:44:02;14.27;;;4.40;;
8716;SDS011;4395;48.554;8.820;2022-10-29T02:46:08;10.80;;;5.17;;
8716;SDS011;4395;48.554;8.820;2022-10-29T02:48:12;10.37;;;4.73;;
8716;SDS011;4395;48.554;8.820;2022-10-29T02:50:15;10.33;;;5.47;;
8716;SDS011;4395;48.554;8.820;2022-10-29T02:52:19;11.97;;;5.10;;
8716;SDS011;4395;48.554;8.820;2022-10-29T02:54:21;12.27;;;4.83;;
8716;SDS011;4395;48.554;8.820;2022-10-29T02:56:24;10.60;;;6.93;;
8716;SDS011;4395;48.554;8.820;2022-10-29T02:58:27;11.50;;;6.37;;
8716;SDS011;4395;48.554;8.820;2022-10-29T03:00:30;10.60;;;5.73;;
8716;SDS011;4395;48.554;8.820;2022-10-29T03:02:33;9.67;;;3.83;;
8716;SDS011;4395;48.554;8.820;2022-10-29T03:04:36;14.10;;;5.63;;
8716;SDS011;4395;48.554;8.820;2022-10-29T03:06:39;14.50;;;5.23;;
8716;SDS011;4395;48.554;8.820;2022-10-29T03:08:44;9.17;;;3.83;;
8716;SDS011;4395;48.554;8.820;2022-10-29T03:10:47;9.43;;;4.13;;
8716;SDS011;4395;48.554;8.820;2022-10-29T03:12:50;11.60;;;4.10;;
8716;SDS011;4395;48.554;8.820;2022-10-29T03:14:53;10.93;;;3.90;;
8716;SDS011;4395;48.554;8.820;2022-10-29T03:16:56;12.60;;;4.20;;
8716;SDS011;4395;48.554;8.820;2022-10-29T03:18:59;11.07;;;4.00;;
8716;SDS011;4395;48.554;8.820;2022-10-29T03:21:02;10.17;;;3.80;;
8716;SDS011;4395;48.554;8.820;2022-10-29T03:23:04;10.73;;;3.80;;
8716;SDS011;4395;48.554;8.820;2022-10-29T03:25:09;7.93;;;3.60;;
8716;SDS011;4395;48.554;8.820;2022-10-29T03:27:12;13.43;;;3.70;;
8716;SDS011;4395;48.554;8.820;2022-10-29T03:29:15;7.77;;;3.47;;
8716;SDS011;4395;48.554;8.820;2022-10-29T03:31:17;9.03;;;3.57;;
8716;SDS011;4395;48.554;8.820;2022-10-29T03:33:20;14.90;;;3.90;;
8716;SDS011;4395;48.554;8.820;2022-10-29T03:35:23;8.47;;;3.23;;
8716;SDS011;4395;48.554;8.820;2022-10-29T03:37:26;10.30;;;4.10;;
8716;SDS011;4395;48.554;8.820;2022-10-29T03:39:29;13.80;;;6.33;;
8716;SDS011;4395;48.554;8.820;2022-10-29T03:41:33;17.90;;;9.83;;
8716;SDS011;4395;48.554;8.820;2022-10-29T03:43:35;18.57;;;5.70;;
8716;SDS011;4395;48.554;8.820;2022-10-29T03:45:38;19.67;;;9.50;;
8716;SDS011;4395;48.554;8.820;2022-10-29T03:47:41;18.03;;;8.73;;
8716;SDS011;4395;48.554;8.820;2022-10-29T03:49:44;23.40;;;10.53;;
8716;SDS011;4395;48.554;8.820;2022-10-29T03:51:47;37.13;;;19.83;;
8716;SDS011;4395;48.554;8.820;2022-10-29T03:53:49;39.10;;;20.97;;
8716;SDS011;4395;48.554;8.820;2022-10-29T03:55:53;57.87;;;29.90;;
8716;SDS011;4395;48.554;8.820;2022-10-29T03:57:58;36.73;;;17.03;;
8716;SDS011;4395;48.554;8.820;2022-10-29T04:00:01;35.33;;;16.83;;
8716;SDS011;4395;48.554;8.820;2022-10-29T04:02:13;31.30;;;14.97;;
8716;SDS011;4395;48.554;8.820;2022-10-29T04:04:16;27.33;;;11.47;;
8716;SDS011;4395;48.554;8.820;2022-10-29T04:06:18;36.30;;;17.37;;
8716;SDS011;4395;48.554;8.820;2022-10-29T04:08:21;17.20;;;7.17;;
8716;SDS011;4395;48.554;8.820;2022-10-29T04:10:24;27.07;;;11.47;;
8716;SDS011;4395;48.554;8.820;2022-10-29T04:12:27;14.03;;;5.37;;
8716;SDS011;4395;48.554;8.820;2022-10-29T04:14:32;18.00;;;6.00;;
8716;SDS011;4395;48.554;8.820;2022-10-29T04:16:35;13.07;;;6.10;;
8716;SDS011;4395;48.554;8.820;2022-10-29T04:18:38;11.03;;;4.10;;
8716;SDS011;4395;48.554;8.820;2022-10-29T04:20:41;10.13;;;3.50;;
8716;SDS011;4395;48.554;8.820;2022-10-29T04:23:03;15.13;;;3.63;;
8716;SDS011;4395;48.554;8.820;2022-10-29T04:25:27;6.07;;;3.90;;
8716;SDS011;4395;48.554;8.820;2022-10-29T04:27:49;8.83;;;3.57;;
8716;SDS011;4395;48.554;8.820;2022-10-29T04:30:16;10.30;;;3.90;;
8716;SDS011;4395;48.554;8.820;2022-10-29T04:32:19;8.67;;;3.37;;
8716;SDS011;4395;48.554;8.820;2022-10-29T04:34:21;9.57;;;4.53;;
8716;SDS011;4395;48.554;8.820;2022-10-29T04:36:24;13.80;;;3.87;;
8716;SDS011;4395;48.554;8.820;2022-10-29T04:38:27;9.53;;;4.10;;
8716;SDS011;4395;48.554;8.820;2022-10-29T04:40:30;12.50;;;3.97;;
8716;SDS011;4395;48.554;8.820;2022-10-29T04:42:34;15.57;;;3.97;;
8716;SDS011;4395;48.554;8.820;2022-10-29T04:44:37;10.03;;;3.70;;
8716;SDS011;4395;48.554;8.820;2022-10-29T04:46:41;9.87;;;4.33;;
8716;SDS011;4395;48.554;8.820;2022-10-29T04:48:43;14.27;;;3.93;;
8716;SDS011;4395;48.554;8.820;2022-10-29T04:50:46;8.90;;;4.27;;
8716;SDS011;4395;48.554;8.820;2022-10-29T04:52:50;9.87;;;3.73;;
8716;SDS011;4395;48.554;8.820;2022-10-29T04:54:52;8.43;;;4.07;;
8716;SDS011;4395;48.554;8.820;2022-10-29T04:56:55;12.83;;;4.30;;
8716;SDS011;4395;48.554;8.820;2022-10-29T04:58:58;11.57;;;4.70;;
8716;SDS011;4395;48.554;8.820;2022-10-29T05:01:00;10.27;;;4.27;;
8716;SDS011;4395;48.554;8.820;2022-10-29T05:03:06;13.67;;;4.90;;
8716;SDS011;4395;48.554;8.820;2022-10-29T05:05:09;8.73;;;4.20;;
8716;SDS011;4395;48.554;8.820;2022-10-29T05:07:12;12.87;;;5.47;;
8716;SDS011;4395;48.554;8.820;2022-10-29T05:09:15;13.37;;;4.43;;
8716;SDS011;4395;48.554;8.820;2022-10-29T05:11:17;9.23;;;4.20;;
8716;SDS011;4395;48.554;8.820;2022-10-29T05:13:20;11.70;;;3.90;;
8716;SDS011;4395;48.554;8.820;2022-10-29T05:15:23;14.80;;;6.90;;
8716;SDS011;4395;48.554;8.820;2022-10-29T05:17:26;9.73;;;4.93;;
8716;SDS011;4395;48.554;8.820;2022-10-29T05:19:30;14.73;;;4.50;;
8716;SDS011;4395;48.554;8.820;2022-10-29T05:21:33;10.47;;;3.90;;
8716;SDS011;4395;48.554;8.820;2022-10-29T05:23:37;17.80;;;6.83;;
8716;SDS011;4395;48.554;8.820;2022-10-29T05:25:40;16.80;;;5.30;;
8716;SDS011;4395;48.554;8.820;2022-10-29T05:27:43;12.20;;;4.40;;
8716;SDS011;4395;48.554;8.820;2022-10-29T05:29:46;19.30;;;6.77;;
8716;SDS011;4395;48.554;8.820;2022-10-29T05:31:50;15.73;;;5.50;;
8716;SDS011;4395;48.554;8.820;2022-10-29T05:33:54;13.97;;;5.93;;
8716;SDS011;4395;48.554;8.820;2022-10-29T05:35:59;11.07;;;6.27;;
8716;SDS011;4395;48.554;8.820;2022-10-29T05:38:02;11.47;;;5.60;;
8716;SDS011;4395;48.554;8.820;2022-10-29T05:40:06;14.70;;;5.27;;
8716;SDS011;4395;48.554;8.820;2022-10-29T05:42:10;11.33;;;4.93;;
8716;SDS011;4395;48.554;8.820;2022-10-29T05:44:13;31.93;;;5.27;;
8716;SDS011;4395;48.554;8.820;2022-10-29T05:46:16;8.97;;;4.70;;
8716;SDS011;4395;48.554;8.820;2022-10-29T05:48:19;11.07;;;5.03;;
8716;SDS011;4395;48.554;8.820;2022-10-29T05:50:21;7.67;;;4.23;;
8716;SDS011;4395;48.554;8.820;2022-10-29T05:52:26;9.00;;;3.93;;
8716;SDS011;4395;48.554;8.820;2022-10-29T05:54:28;8.57;;;4.43;;
8716;SDS011;4395;48.554;8.820;2022-10-29T05:56:31;12.73;;;5.20;;
8716;SDS011;4395;48.554;8.820;2022-10-29T05:58:34;11.67;;;4.60;;
8716;SDS011;4395;48.554;8.820;2022-10-29T06:00:37;8.33;;;4.27;;
8716;SDS011;4395;48.554;8.820;2022-10-29T06:02:41;10.63;;;4.27;;
8716;SDS011;4395;48.554;8.820;2022-10-29T06:04:44;10.97;;;4.33;;
8716;SDS011;4395;48.554;8.820;2022-10-29T06:06:47;10.50;;;4.63;;
8716;SDS011;4395;48.554;8.820;2022-10-29T06:08:51;11.27;;;4.37;;
8716;SDS011;4395;48.554;8.820;2022-10-29T06:10:54;11.83;;;4.90;;
8716;SDS011;4395;48.554;8.820;2022-10-29T06:12:57;11.50;;;4.67;;
8716;SDS011;4395;48.554;8.820;2022-10-29T06:14:59;11.53;;;4.60;;
8716;SDS011;4395;48.554;8.820;2022-10-29T06:17:02;10.23;;;4.50;;
8716;SDS011;4395;48.554;8.820;2022-10-29T06:19:05;10.03;;;4.30;;
8716;SDS011;4395;48.554;8.820;2022-10-29T06:21:08;15.57;;;5.13;;
8716;SDS011;4395;48.554;8.820;2022-10-29T06:23:10;9.80;;;4.03;;
8716;SDS011;4395;48.554;8.820;2022-10-29T06:25:15;9.07;;;4.20;;
8716;SDS011;4395;48.554;8.820;2022-10-29T06:27:18;6.20;;;4.23;;
8716;SDS011;4395;48.554;8.820;2022-10-29T06:29:20;8.77;;;4.00;;
8716;SDS011;4395;48.554;8.820;2022-10-29T06:31:23;14.93;;;4.13;;
8716;SDS011;4395;48.554;8.820;2022-10-29T06:33:26;10.07;;;4.17;;
8716;SDS011;4395;48.554;8.820;2022-10-29T06:35:29;8.67;;;4.00;;
8716;SDS011;4395;48.554;8.820;2022-10-29T06:37:36;11.87;;;4.20;;
8716;SDS011;4395;48.554;8.820;2022-10-29T06:39:39;13.20;;;4.53;;
8716;SDS011;4395;48.554;8.820;2022-10-29T06:41:43;11.50;;;4.20;;
8716;SDS011;4395;48.554;8.820;2022-10-29T06:43:52;11.17;;;4.50;;
8716;SDS011;4395;48.554;8.820;2022-10-29T06:45:55;8.47;;;4.03;;
8716;SDS011;4395;48.554;8.820;2022-10-29T06:47:57;8.37;;;4.40;;
8716;SDS011;4395;48.554;8.820;2022-10-29T06:50:00;9.57;;;4.63;;
8716;SDS011;4395;48.554;8.820;2022-10-29T06:52:03;4.90;;;3.37;;
8716;SDS011;4395;48.554;8.820;2022-10-29T06:54:06;6.53;;;3.57;;
8716;SDS011;4395;48.554;8.820;2022-10-29T06:56:09;9.43;;;3.87;;
8716;SDS011;4395;48.554;8.820;2022-10-29T06:58:14;12.50;;;4.20;;
8716;SDS011;4395;48.554;8.820;2022-10-29T07:00:18;8.37;;;3.73;;
8716;SDS011;4395;48.554;8.820;2022-10-29T07:02:21;14.47;;;4.33;;
8716;SDS011;4395;48.554;8.820;2022-10-29T07:04:25;10.17;;;3.90;;
8716;SDS011;4395;48.554;8.820;2022-10-29T07:06:27;10.03;;;4.37;;
8716;SDS011;4395;48.554;8.820;2022-10-29T07:08:33;7.63;;;3.77;;
8716;SDS011;4395;48.554;8.820;2022-10-29T07:10:36;8.47;;;4.10;;
8716;SDS011;4395;48.554;8.820;2022-10-29T07:12:40;15.43;;;4.70;;
8716;SDS011;4395;48.554;8.820;2022-10-29T07:14:45;11.57;;;4.43;;
8716;SDS011;4395;48.554;8.820;2022-10-29T07:16:48;8.77;;;3.60;;
8716;SDS011;4395;48.554;8.820;2022-10-29T07:18:51;13.87;;;4.10;;
8716;SDS011;4395;48.554;8.820;2022-10-29T07:20:54;7.03;;;3.90;;
8716;SDS011;4395;48.554;8.820;2022-10-29T07:22:57;12.07;;;4.43;;
8716;SDS011;4395;48.554;8.820;2022-10-29T07:25:00;10.20;;;4.17;;
8716;SDS011;4395;48.554;8.820;2022-10-29T07:27:04;10.27;;;4.20;;
8716;SDS011;4395;48.554;8.820;2022-10-29T07:29:07;11.63;;;4.20;;
8716;SDS011;4395;48.554;8.820;2022-10-29T07:31:12;11.77;;;4.07;;
8716;SDS011;4395;48.554;8.820;2022-10-29T07:33:15;11.87;;;4.40;;
8716;SDS011;4395;48.554;8.820;2022-10-29T07:35:18;9.37;;;4.10;;
8716;SDS011;4395;48.554;8.820;2022-10-29T07:37:21;8.20;;;4.40;;
8716;SDS011;4395;48.554;8.820;2022-10-29T07:39:24;14.43;;;4.10;;
8716;SDS011;4395;48.554;8.820;2022-10-29T07:41:27;11.03;;;4.13;;
8716;SDS011;4395;48.554;8.820;2022-10-29T07:43:30;11.40;;;4.43;;
8716;SDS011;4395;48.554;8.820;2022-10-29T07:45:32;8.70;;;3.93;;
8716;SDS011;4395;48.554;8.820;2022-10-29T07:47:36;10.20;;;4.20;;
8716;SDS011;4395;48.554;8.820;2022-10-29T07:49:39;9.00;;;3.83;;
8716;SDS011;4395;48.554;8.820;2022-10-29T07:51:42;12.63;;;4.23;;
8716;SDS011;4395;48.554;8.820;2022-10-29T07:53:44;10.20;;;4.13;;
8716;SDS011;4395;48.554;8.820;2022-10-29T07:55:50;9.33;;;4.33;;
8716;SDS011;4395;48.554;8.820;2022-10-29T07:57:54;9.67;;;3.60;;
8716;SDS011;4395;48.554;8.820;2022-10-29T07:59:59;10.33;;;4.03;;
8716;SDS011;4395;48.554;8.820;2022-10-29T08:02:12;7.47;;;3.67;;
8716;SDS011;4395;48.554;8.820;2022-10-29T08:04:16;10.30;;;3.67;;
8716;SDS011;4395;48.554;8.820;2022-10-29T08:06:19;9.57;;;3.87;;
8716;SDS011;4395;48.554;8.820;2022-10-29T08:08:22;10.90;;;4.10;;
8716;SDS011;4395;48.554;8.820;2022-10-29T08:10:25;9.93;;;4.00;;
8716;SDS011;4395;48.554;8.820;2022-10-29T08:12:28;10.40;;;3.80;;
8716;SDS011;4395;48.554;8.820;2022-10-29T08:14:31;9.00;;;3.60;;
8716;SDS011;4395;48.554;8.820;2022-10-29T08:16:33;9.60;;;3.80;;
8716;SDS011;4395;48.554;8.820;2022-10-29T08:18:36;9.23;;;3.77;;
8716;SDS011;4395;48.554;8.820;2022-10-29T08:20:40;7.47;;;4.03;;
8716;SDS011;4395;48.554;8.820;2022-10-29T08:22:44;11.60;;;4.10;;
8716;SDS011;4395;48.554;8.820;2022-10-29T08:24:47;10.67;;;4.03;;
8716;SDS011;4395;48.554;8.820;2022-10-29T08:26:49;8.57;;;3.50;;
8716;SDS011;4395;48.554;8.820;2022-10-29T08:28:52;12.50;;;4.00;;
8716;SDS011;4395;48.554;8.820;2022-10-29T08:30:55;7.47;;;3.70;;
8716;SDS011;4395;48.554;8.820;2022-10-29T08:32:58;8.10;;;3.80;;
8716;SDS011;4395;48.554;8.820;2022-10-29T08:35:02;10.53;;;4.20;;
8716;SDS011;4395;48.554;8.820;2022-10-29T08:37:06;8.17;;;3.90;;
8716;SDS011;4395;48.554;8.820;2022-10-29T08:39:09;8.03;;;4.50;;
8716;SDS011;4395;48.554;8.820;2022-10-29T08:41:16;10.30;;;4.07;;
8716;SDS011;4395;48.554;8.820;2022-10-29T08:43:46;10.77;;;4.20;;
8716;SDS011;4395;48.554;8.820;2022-10-29T08:46:08;8.40;;;3.70;;
8716;SDS011;4395;48.554;8.820;2022-10-29T08:48:23;13.07;;;6.87;;
8716;SDS011;4395;48.554;8.820;2022-10-29T08:50:33;10.37;;;3.80;;
8716;SDS011;4395;48.554;8.820;2022-10-29T08:52:42;11.63;;;3.83;;
8716;SDS011;4395;48.554;8.820;2022-10-29T08:55:05;10.60;;;3.70;;
8716;SDS011;4395;48.554;8.820;2022-10-29T08:57:16;8.80;;;3.23;;
8716;SDS011;4395;48.554;8.820;2022-10-29T08:59:23;12.47;;;4.23;;
8716;SDS011;4395;48.554;8.820;2022-10-29T09:01:27;7.67;;;3.30;;
8716;SDS011;4395;48.554;8.820;2022-10-29T09:03:31;6.30;;;3.40;;
8716;SDS011;4395;48.554;8.820;2022-10-29T09:05:36;9.10;;;4.10;;
8716;SDS011;4395;48.554;8.820;2022-10-29T09:07:58;14.30;;;4.00;;
8716;SDS011;4395;48.554;8.820;2022-10-29T09:10:15;10.63;;;3.87;;
8716;SDS011;4395;48.554;8.820;2022-10-29T09:12:39;12.50;;;3.60;;
8716;SDS011;4395;48.554;8.820;2022-10-29T09:14:59;8.50;;;3.63;;
8716;SDS011;4395;48.554;8.820;2022-10-29T09:17:19;12.17;;;3.93;;
8716;SDS011;4395;48.554;8.820;2022-10-29T09:19:34;9.30;;;3.60;;
8716;SDS011;4395;48.554;8.820;2022-10-29T09:21:50;9.93;;;4.40;;
8716;SDS011;4395;48.554;8.820;2022-10-29T09:24:04;10.37;;;3.93;;
8716;SDS011;4395;48.554;8.820;2022-10-29T09:26:16;11.13;;;3.77;;
8716;SDS011;4395;48.554;8.820;2022-10-29T09:28:28;10.67;;;4.00;;
8716;SDS011;4395;48.554;8.820;2022-10-29T09:30:37;11.60;;;4.07;;
8716;SDS011;4395;48.554;8.820;2022-10-29T09:32:51;10.47;;;4.13;;
8716;SDS011;4395;48.554;8.820;2022-10-29T09:34:59;9.67;;;4.10;;
8716;SDS011;4395;48.554;8.820;2022-10-29T09:37:09;12.37;;;4.37;;
8716;SDS011;4395;48.554;8.820;2022-10-29T09:39:19;13.73;;;3.70;;
8716;SDS011;4395;48.554;8.820;2022-10-29T09:41:34;9.47;;;3.80;;
8716;SDS011;4395;48.554;8.820;2022-10-29T09:43:40;11.33;;;4.07;;
8716;SDS011;4395;48.554;8.820;2022-10-29T09:45:52;9.10;;;4.23;;
8716;SDS011;4395;48.554;8.820;2022-10-29T09:48:00;11.70;;;4.47;;
8716;SDS011;4395;48.554;8.820;2022-10-29T09:50:14;12.60;;;4.13;;
8716;SDS011;4395;48.554;8.820;2022-10-29T09:52:23;7.77;;;4.07;;
8716;SDS011;4395;48.554;8.820;2022-10-29T09:54:30;8.57;;;4.10;;
8716;SDS011;4395;48.554;8.820;2022-10-29T09:56:34;7.33;;;3.77;;
8716;SDS011;4395;48.554;8.820;2022-10-29T09:58:42;8.90;;;3.80;;
8716;SDS011;4395;48.554;8.820;2022-10-29T10:00:48;7.60;;;3.90;;
8716;SDS011;4395;48.554;8.820;2022-10-29T10:02:52;14.40;;;4.10;;
8716;SDS011;4395;48.554;8.820;2022-10-29T10:05:03;7.73;;;3.77;;
8716;SDS011;4395;48.554;8.820;2022-10-29T10:07:08;13.43;;;4.30;;
8716;SDS011;4395;48.554;8.820;2022-10-29T10:09:12;11.90;;;4.20;;
8716;SDS011;4395;48.554;8.820;2022-10-29T10:11:17;9.43;;;4.20;;
8716;SDS011;4395;48.554;8.820;2022-10-29T10:13:21;10.47;;;3.83;;
8716;SDS011;4395;48.554;8.820;2022-10-29T10:15:29;8.60;;;4.03;;
8716;SDS011;4395;48.554;8.820;2022-10-29T10:19:59;9.73;;;4.17;;
8716;SDS011;4395;48.554;8.820;2022-10-29T10:22:03;8.43;;;3.80;;
8716;SDS011;4395;48.554;8.820;2022-10-29T10:24:21;7.30;;;4.10;;
8716;SDS011;4395;48.554;8.820;2022-10-29T10:26:35;10.03;;;4.00;;
8716;SDS011;4395;48.554;8.820;2022-10-29T10:28:43;15.23;;;4.80;;
8716;SDS011;4395;48.554;8.820;2022-10-29T10:31:00;13.27;;;4.37;;
8716;SDS011;4395;48.554;8.820;2022-10-29T10:33:11;7.17;;;3.63;;
8716;SDS011;4395;48.554;8.820;2022-10-29T10:35:25;7.80;;;4.10;;
8716;SDS011;4395;48.554;8.820;2022-10-29T10:37:30;13.37;;;3.93;;
8716;SDS011;4395;48.554;8.820;2022-10-29T10:39:35;8.77;;;3.97;;
8716;SDS011;4395;48.554;8.820;2022-10-29T10:41:41;10.83;;;4.10;;
8716;SDS011;4395;48.554;8.820;2022-10-29T10:43:44;11.37;;;4.30;;
8716;SDS011;4395;48.554;8.820;2022-10-29T10:45:51;11.87;;;4.10;;
8716;SDS011;4395;48.554;8.820;2022-10-29T10:47:57;9.27;;;3.90;;
8716;SDS011;4395;48.554;8.820;2022-10-29T10:50:08;12.13;;;4.03;;
8716;SDS011;4395;48.554;8.820;2022-10-29T10:52:14;7.43;;;3.60;;
8716;SDS011;4395;48.554;8.820;2022-10-29T10:54:23;7.80;;;3.87;;
8716;SDS011;4395;48.554;8.820;2022-10-29T10:56:30;12.37;;;3.97;;
8716;SDS011;4395;48.554;8.820;2022-10-29T10:58:36;10.70;;;3.70;;
8716;SDS011;4395;48.554;8.820;2022-10-29T11:00:46;11.07;;;3.83;;
8716;SDS011;4395;48.554;8.820;2022-10-29T11:02:56;10.27;;;3.60;;
8716;SDS011;4395;48.554;8.820;2022-10-29T11:05:08;9.67;;;3.60;;
8716;SDS011;4395;48.554;8.820;2022-10-29T11:07:16;11.20;;;3.70;;
8716;SDS011;4395;48.554;8.820;2022-10-29T11:09:20;9.63;;;3.50;;
8716;SDS011;4395;48.554;8.820;2022-10-29T11:11:27;11.63;;;3.93;;
8716;SDS011;4395;48.554;8.820;2022-10-29T11:13:33;9.40;;;3.40;;
8716;SDS011;4395;48.554;8.820;2022-10-29T11:15:38;9.17;;;3.60;;
8716;SDS011;4395;48.554;8.820;2022-10-29T11:17:46;10.70;;;3.83;;
8716;SDS011;4395;48.554;8.820;2022-10-29T11:19:55;11.53;;;3.73;;
8716;SDS011;4395;48.554;8.820;2022-10-29T11:22:04;16.13;;;3.97;;
8716;SDS011;4395;48.554;8.820;2022-10-29T11:24:15;7.73;;;3.70;;
8716;SDS011;4395;48.554;8.820;2022-10-29T11:26:27;10.70;;;3.50;;
8716;SDS011;4395;48.554;8.820;2022-10-29T11:28:36;11.10;;;3.70;;
8716;SDS011;4395;48.554;8.820;2022-10-29T11:30:45;13.47;;;3.50;;
8716;SDS011;4395;48.554;8.820;2022-10-29T11:32:56;10.90;;;3.53;;
8716;SDS011;4395;48.554;8.820;2022-10-29T11:35:08;11.00;;;3.53;;
8716;SDS011;4395;48.554;8.820;2022-10-29T11:37:15;13.73;;;3.60;;
8716;SDS011;4395;48.554;8.820;2022-10-29T11:39:25;12.73;;;3.67;;
8716;SDS011;4395;48.554;8.820;2022-10-29T11:41:33;12.53;;;4.03;;
8716;SDS011;4395;48.554;8.820;2022-10-29T11:43:42;7.87;;;3.73;;
8716;SDS011;4395;48.554;8.820;2022-10-29T11:45:51;10.97;;;3.80;;
8716;SDS011;4395;48.554;8.820;2022-10-29T11:48:07;7.10;;;3.10;;
8716;SDS011;4395;48.554;8.820;2022-10-29T11:50:24;9.37;;;3.70;;
8716;SDS011;4395;48.554;8.820;2022-10-29T11:52:34;13.40;;;4.07;;
8716;SDS011;4395;48.554;8.820;2022-10-29T11:54:49;11.23;;;3.43;;
8716;SDS011;4395;48.554;8.820;2022-10-29T11:57:02;11.07;;;3.73;;
8716;SDS011;4395;48.554;8.820;2022-10-29T11:59:11;8.17;;;3.53;;
8716;SDS011;4395;48.554;8.820;2022-10-29T12:01:23;10.97;;;3.70;;
8716;SDS011;4395;48.554;8.820;2022-10-29T12:03:45;11.87;;;3.70;;
8716;SDS011;4395;48.554;8.820;2022-10-29T12:06:02;9.27;;;3.73;;
8716;SDS011;4395;48.554;8.820;2022-10-29T12:08:17;10.73;;;3.70;;
8716;SDS011;4395;48.554;8.820;2022-10-29T12:10:32;12.90;;;3.67;;
8716;SDS011;4395;48.554;8.820;2022-10-29T12:12:46;10.43;;;3.73;;
8716;SDS011;4395;48.554;8.820;2022-10-29T12:14:59;11.40;;;3.80;;
8716;SDS011;4395;48.554;8.820;2022-10-29T12:17:12;13.20;;;4.20;;
8716;SDS011;4395;48.554;8.820;2022-10-29T12:19:20;12.80;;;4.00;;
8716;SDS011;4395;48.554;8.820;2022-10-29T12:21:35;9.77;;;3.73;;
8716;SDS011;4395;48.554;8.820;2022-10-29T12:23:49;10.67;;;4.00;;
8716;SDS011;4395;48.554;8.820;2022-10-29T12:26:05;13.27;;;4.10;;
8716;SDS011;4395;48.554;8.820;2022-10-29T12:28:15;14.23;;;4.33;;
8716;SDS011;4395;48.554;8.820;2022-10-29T12:30:23;10.77;;;3.80;;
8716;SDS011;4395;48.554;8.820;2022-10-29T12:32:29;9.97;;;3.77;;
8716;SDS011;4395;48.554;8.820;2022-10-29T12:34:38;11.67;;;3.67;;
8716;SDS011;4395;48.554;8.820;2022-10-29T12:36:45;12.97;;;3.63;;
8716;SDS011;4395;48.554;8.820;2022-10-29T12:38:58;9.80;;;3.67;;
8716;SDS011;4395;48.554;8.820;2022-10-29T12:41:03;8.63;;;3.70;;
8716;SDS011;4395;48.554;8.820;2022-10-29T12:43:12;10.20;;;3.73;;
8716;SDS011;4395;48.554;8.820;2022-10-29T12:45:22;10.43;;;3.50;;
8716;SDS011;4395;48.554;8.820;2022-10-29T12:47:37;13.23;;;3.87;;
8716;SDS011;4395;48.554;8.820;2022-10-29T12:49:48;9.50;;;3.40;;
8716;SDS011;4395;48.554;8.820;2022-10-29T12:52:02;9.00;;;3.37;;
8716;SDS011;4395;48.554;8.820;2022-10-29T12:56:37;11.70;;;3.67;;
8716;SDS011;4395;48.554;8.820;2022-10-29T12:58:45;11.57;;;3.80;;
8716;SDS011;4395;48.554;8.820;2022-10-29T13:00:53;9.63;;;3.77;;
8716;SDS011;4395;48.554;8.820;2022-10-29T13:02:57;10.13;;;3.70;;